Time;durP1;ratioP1;P1;durP2;ratioP2;P2;SDS_P1;SDS_P2;PMS_P1;PMS_P2;Temp;Humidity;BMP_temperature;BMP_pressure;BME280_temperature;BME280_humidity;BME280_pressure;Samples;Min_cycle;Max_cycle;Signal;HPM_P1;HPM_P2
2022/01/08 00:01:25;;;;;;;3.20;2.03;;;;;;;4.29;60.11;96158.81;5072188;28;20285;-69
2022/01/08 00:03:51;;;;;;;2.17;1.97;;;;;;;4.37;59.63;96152.94;5071530;28;20186;-71
2022/01/08 00:06:17;;;;;;;2.73;1.90;;;;;;;4.18;59.87;96155.53;5064586;28;20224;-68
2022/01/08 00:08:43;;;;;;;2.30;1.80;;;;;;;4.22;59.54;96149.13;5073204;28;20913;-68
2022/01/08 00:11:13;;;;;;;2.73;1.93;;;;;;;4.43;59.38;96139.41;5066552;28;20428;-68
2022/01/08 00:13:40;;;;;;;1.90;1.70;;;;;;;4.57;59.21;96137.31;5070947;28;20461;-69
2022/01/08 00:16:06;;;;;;;4.00;2.00;;;;;;;4.45;59.06;96134.88;5062260;28;20795;-68
2022/01/08 00:18:32;;;;;;;3.77;2.37;;;;;;;4.56;58.79;96133.09;5057981;28;20429;-68
2022/01/08 00:20:58;;;;;;;3.20;1.97;;;;;;;4.59;58.78;96115.47;5065074;28;20511;-69
2022/01/08 00:23:23;;;;;;;2.03;1.63;;;;;;;4.58;58.97;96105.22;5059785;28;20210;-69
2022/01/08 00:25:49;;;;;;;3.10;1.70;;;;;;;4.80;58.31;96098.03;5059500;28;20179;-69
2022/01/08 00:28:15;;;;;;;3.20;1.70;;;;;;;4.78;58.41;96092.19;5061180;28;20637;-68
2022/01/08 00:30:45;;;;;;;2.80;1.57;;;;;;;4.86;58.25;96094.88;5070839;28;20174;-69
2022/01/08 00:33:10;;;;;;;2.60;1.53;;;;;;;4.94;57.78;96081.97;5058793;28;20550;-69
2022/01/08 00:35:36;;;;;;;2.13;1.77;;;;;;;4.95;57.80;96088.81;5057885;28;20429;-69
2022/01/08 00:38:02;;;;;;;2.60;1.93;;;;;;;4.92;57.47;96089.94;5063508;28;20789;-69
2022/01/08 00:40:28;;;;;;;1.80;1.50;;;;;;;4.94;57.64;96088.97;5066143;28;20187;-68
2022/01/08 00:42:54;;;;;;;6.00;2.00;;;;;;;4.92;57.32;96084.72;5062779;28;20499;-69
2022/01/08 00:45:20;;;;;;;2.90;1.67;;;;;;;5.00;57.91;96086.59;5055224;28;20416;-69
2022/01/08 00:47:45;;;;;;;1.77;1.57;;;;;;;5.11;57.30;96082.97;5060524;28;20503;-69
2022/01/08 00:50:14;;;;;;;1.90;1.60;;;;;;;4.91;57.63;96066.72;5061293;28;20213;-70
2022/01/08 00:52:40;;;;;;;2.33;1.77;;;;;;;4.62;57.88;96067.66;5057396;28;20674;-69
2022/01/08 00:55:06;;;;;;;3.73;2.20;;;;;;;4.87;57.59;96055.78;5063041;28;20485;-69
2022/01/08 00:57:32;;;;;;;2.90;2.00;;;;;;;4.98;56.76;96059.16;5054377;28;20183;-68
2022/01/08 00:59:57;;;;;;;2.60;1.70;;;;;;;5.04;56.96;96048.97;5057223;28;20532;-68
2022/01/08 01:02:23;;;;;;;3.33;2.20;;;;;;;5.05;56.58;96042.81;5059496;28;20686;-68
2022/01/08 01:04:49;;;;;;;2.07;1.87;;;;;;;4.96;57.23;96038.50;5067121;28;20233;-69
2022/01/08 01:07:14;;;;;;;3.17;2.07;;;;;;;4.91;57.39;96032.97;5061058;28;20278;-70
2022/01/08 01:09:40;;;;;;;2.10;1.90;;;;;;;4.78;57.28;96029.88;5062322;28;20183;-68
2022/01/08 01:12:06;;;;;;;3.00;1.60;;;;;;;4.75;57.09;96030.97;5060548;28;20690;-69
2022/01/08 01:14:31;;;;;;;3.63;2.00;;;;;;;4.74;57.24;96030.16;5057769;28;20210;-70
2022/01/08 01:16:57;;;;;;;5.63;2.40;;;;;;;4.89;57.48;96021.91;5062211;28;20548;-69
2022/01/08 01:19:23;;;;;;;2.53;1.70;;;;;;;4.80;58.25;96020.16;5058575;28;20183;-69
2022/01/08 01:21:49;;;;;;;3.80;2.30;;;;;;;4.58;57.85;96010.03;5064409;28;20222;-69
2022/01/08 01:24:20;;;;;;;3.20;2.03;;;;;;;4.41;59.22;96003.00;5059317;28;20191;-69
2022/01/08 01:29:46;;;;;;;3.53;2.60;;;;;;;4.54;58.56;95989.69;5044248;28;20928;-69
2022/01/08 01:48:20;;;;;;;2.03;1.63;;;;;;;4.72;58.56;95950.81;5055111;28;20422;-69
2022/01/08 01:50:46;;;;;;;2.57;1.90;;;;;;;4.79;58.87;95944.06;5054519;28;20430;-69
2022/01/08 01:53:11;;;;;;;2.50;2.13;;;;;;;4.99;58.11;95934.38;5058826;28;20238;-70
2022/01/08 01:55:37;;;;;;;2.40;1.80;;;;;;;4.87;58.52;95919.97;5060194;28;20187;-69
2022/01/08 01:58:05;;;;;;;2.17;1.73;;;;;;;4.71;58.66;95911.06;5062054;28;20202;-69
2022/01/08 02:00:32;;;;;;;5.00;1.93;;;;;;;4.72;58.73;95910.09;5053948;28;20183;-69
2022/01/08 02:02:59;;;;;;;2.13;1.70;;;;;;;4.77;58.99;95896.66;5064645;28;20456;-68
2022/01/08 02:05:24;;;;;;;2.20;1.90;;;;;;;4.64;59.64;95893.63;5060948;28;20418;-69
2022/01/08 02:07:50;;;;;;;1.90;1.70;;;;;;;4.60;59.92;95890.50;5063139;28;20417;-69
2022/01/08 02:10:16;;;;;;;5.40;1.80;;;;;;;4.34;60.58;95891.22;5055842;28;20909;-68
2022/01/08 02:12:41;;;;;;;1.80;1.50;;;;;;;4.54;60.65;95884.13;5065229;28;20461;-69
2022/01/08 02:15:07;;;;;;;3.73;1.60;;;;;;;4.57;61.13;95877.81;5065509;28;20183;-69
2022/01/08 02:17:33;;;;;;;2.30;1.80;;;;;;;4.71;60.62;95884.28;5060848;28;20309;-68
2022/01/08 02:19:58;;;;;;;1.93;1.53;;;;;;;4.72;61.18;95862.56;5057808;28;20186;-69
2022/01/08 02:22:24;;;;;;;2.10;1.60;;;;;;;4.68;61.15;95875.00;5041950;28;20617;-69
2022/01/08 02:24:50;;;;;;;3.77;1.87;;;;;;;4.61;61.19;95861.81;5058045;28;20275;-69
2022/01/08 02:27:16;;;;;;;3.10;1.70;;;;;;;4.86;61.60;95859.44;5057115;28;20268;-69
2022/01/08 02:29:42;;;;;;;1.60;1.50;;;;;;;4.78;61.32;95845.59;5056305;28;20183;-69
2022/01/08 02:32:15;;;;;;;3.87;1.30;;;;;;;4.46;62.72;95845.13;5056271;28;20540;-69
2022/01/08 02:34:41;;;;;;;1.70;1.60;;;;;;;4.46;62.95;95842.53;5060607;28;20956;-70
2022/01/08 02:37:08;;;;;;;4.43;1.97;;;;;;;4.86;61.41;95838.66;5059387;28;20452;-69
2022/01/08 02:39:42;;;;;;;4.33;1.83;;;;;;;4.99;61.10;95833.09;5065879;28;20429;-69
2022/01/08 02:42:11;;;;;;;2.27;1.40;;;;;;;4.64;62.06;95836.53;5063223;28;21024;-70
2022/01/08 02:44:37;;;;;;;2.87;1.70;;;;;;;4.46;62.35;95825.19;5056727;28;20443;-70
2022/01/08 02:47:03;;;;;;;4.57;1.70;;;;;;;4.67;62.13;95818.88;5062505;28;20516;-68
2022/01/08 02:49:32;;;;;;;3.00;1.90;;;;;;;4.62;62.40;95826.31;5061285;28;20210;-69
2022/01/08 02:51:58;;;;;;;3.53;1.63;;;;;;;4.74;62.94;95801.75;5060473;28;20491;-70
2022/01/08 02:54:23;;;;;;;2.97;1.83;;;;;;;4.43;63.73;95812.50;5056094;28;20425;-68
2022/01/08 02:56:49;;;;;;;2.43;1.70;;;;;;;4.24;64.86;95816.03;5053698;28;20226;-69
2022/01/08 02:59:16;;;;;;;3.87;1.87;;;;;;;4.27;65.56;95794.22;5065056;28;20187;-68
2022/01/08 03:01:41;;;;;;;2.87;2.20;;;;;;;4.58;64.74;95788.63;5060109;28;20461;-69
2022/01/08 03:04:08;;;;;;;3.47;2.10;;;;;;;4.34;65.40;95794.44;5059221;28;20437;-68
2022/01/08 03:06:33;;;;;;;3.67;2.07;;;;;;;4.19;66.66;95787.16;5056007;28;20179;-69
2022/01/08 03:08:59;;;;;;;3.67;2.27;;;;;;;4.49;65.58;95777.38;5060662;28;20482;-69
2022/01/08 03:11:24;;;;;;;3.20;2.03;;;;;;;4.30;66.28;95780.94;5012899;28;20202;-67
2022/01/08 03:13:50;;;;;;;2.90;2.10;;;;;;;3.94;68.40;95778.31;5070879;28;20546;-69
2022/01/08 03:16:17;;;;;;;3.93;2.00;;;;;;;4.27;67.76;95776.06;5057869;28;20248;-68
2022/01/08 03:18:44;;;;;;;3.40;2.57;;;;;;;4.33;67.54;95775.44;5059467;28;20183;-67
2022/01/08 03:21:15;;;;;;;4.23;2.80;;;;;;;4.08;68.96;95775.22;5059340;28;20878;-69
2022/01/08 03:23:55;;;;;;;4.33;2.70;;;;;;;4.25;68.60;95781.38;5060916;28;20479;-67
2022/01/08 03:26:22;;;;;;;4.67;2.90;;;;;;;4.42;68.29;95774.56;5051596;28;21006;-68
2022/01/08 03:28:48;;;;;;;2.70;2.50;;;;;;;4.35;69.17;95759.75;5057639;28;20505;-69
2022/01/08 03:31:14;;;;;;;3.80;2.60;;;;;;;4.34;68.82;95777.09;5051501;28;20847;-69
2022/01/08 03:33:41;;;;;;;5.37;2.90;;;;;;;4.14;69.50;95769.44;5056288;28;20171;-70
2022/01/08 03:36:07;;;;;;;4.03;2.63;;;;;;;4.11;69.95;95766.31;5054719;28;20437;-68
2022/01/08 03:38:34;;;;;;;4.93;2.50;;;;;;;3.95;70.40;95764.38;5052156;28;20429;-68
2022/01/08 03:40:59;;;;;;;3.67;2.80;;;;;;;4.21;69.92;95761.91;5054865;28;20449;-69
2022/01/08 03:43:25;;;;;;;5.03;3.20;;;;;;;3.96;71.23;95758.25;5060406;28;20551;-69
2022/01/08 03:45:51;;;;;;;3.63;3.30;;;;;;;3.86;70.92;95767.84;5056636;28;20237;-68
2022/01/08 03:50:56;;;;;;;4.30;3.50;;;;;;;3.76;72.21;95760.13;5058308;28;20433;-68
2022/01/08 03:53:23;;;;;;;4.10;3.30;;;;;;;4.01;71.62;95763.81;5055024;28;20916;-68
2022/01/08 03:55:49;;;;;;;6.47;3.80;;;;;;;3.78;72.28;95759.00;5060450;28;20417;-68
2022/01/08 03:58:14;;;;;;;6.97;4.27;;;;;;;3.94;71.90;95758.41;5065157;28;20455;-69
2022/01/08 04:00:40;;;;;;;6.70;4.23;;;;;;;3.80;71.92;95751.09;5034292;28;20465;-69
2022/01/08 04:03:06;;;;;;;8.90;3.97;;;;;;;4.10;71.46;95762.09;5059066;28;20218;-69
2022/01/08 04:05:31;;;;;;;8.07;4.13;;;;;;;4.17;71.21;95750.19;5052463;28;20201;-69
2022/01/08 04:07:57;;;;;;;4.63;4.13;;;;;;;3.56;73.61;95760.25;5053602;28;20240;-70
2022/01/08 04:10:22;;;;;;;4.90;4.40;;;;;;;3.65;73.46;95754.19;5053896;28;20175;-69
2022/01/08 04:12:53;;;;;;;5.90;4.37;;;;;;;3.95;72.82;95751.41;5057014;28;20210;-67
2022/01/08 04:15:42;;;;;;;4.60;3.83;;;;;;;4.02;72.86;95765.44;5065536;28;20207;-69
2022/01/08 04:18:05;;;;;;;4.60;3.70;;;;;;;4.03;71.91;95759.28;5054168;28;20498;-69
2022/01/08 04:20:31;;;;;;;4.70;3.87;;;;;;;4.05;71.79;95765.13;5059269;28;20417;-68
2022/01/08 04:22:56;;;;;;;4.73;4.20;;;;;;;3.72;73.74;95764.78;5056162;28;20492;-68
2022/01/08 04:25:23;;;;;;;4.80;3.80;;;;;;;4.05;71.75;95767.72;5057037;28;20425;-69
2022/01/08 04:27:49;;;;;;;4.13;3.50;;;;;;;4.05;72.03;95759.94;5052996;28;20643;-69
2022/01/08 04:30:15;;;;;;;4.20;3.80;;;;;;;4.08;72.03;95770.03;5056442;28;20478;-69
2022/01/08 04:32:40;;;;;;;7.93;4.10;;;;;;;3.96;72.42;95771.19;5053626;28;20230;-68
2022/01/08 04:35:07;;;;;;;6.10;4.07;;;;;;;4.12;72.04;95779.16;5056980;28;20191;-70
2022/01/08 04:37:32;;;;;;;4.00;3.40;;;;;;;3.79;73.32;95783.97;5059672;28;20191;-69
2022/01/08 04:39:58;;;;;;;4.30;3.70;;;;;;;3.72;73.60;95782.94;5058591;28;20419;-68
2022/01/08 04:42:23;;;;;;;3.97;3.57;;;;;;;3.90;73.68;95788.16;5053953;28;20712;-70
2022/01/08 04:44:49;;;;;;;4.90;4.00;;;;;;;3.46;75.09;95800.91;5062291;28;20575;-69
2022/01/08 04:47:15;;;;;;;3.70;3.30;;;;;;;3.65;74.49;95792.25;5053115;28;20202;-70
2022/01/08 04:49:40;;;;;;;5.53;4.57;;;;;;;3.58;74.80;95797.19;5060877;28;20193;-69
2022/01/08 04:52:07;;;;;;;5.50;4.27;;;;;;;4.18;72.95;95795.06;5056198;28;20289;-68
2022/01/08 04:54:33;;;;;;;5.97;4.50;;;;;;;3.62;74.23;95795.91;5045054;28;20543;-70
2022/01/08 04:56:58;;;;;;;4.17;3.77;;;;;;;3.89;73.39;95802.06;5054721;28;20439;-68
2022/01/08 04:59:24;;;;;;;4.00;3.60;;;;;;;3.51;75.25;95809.06;5058985;28;20190;-70
2022/01/08 05:01:50;;;;;;;4.63;3.43;;;;;;;3.51;74.58;95809.91;5056632;28;20241;-69
2022/01/08 05:04:15;;;;;;;3.77;3.47;;;;;;;3.58;74.55;95810.13;5061347;28;20175;-69
2022/01/08 05:06:41;;;;;;;3.47;3.17;;;;;;;3.74;73.43;95811.28;5056904;28;20178;-69
2022/01/08 05:09:07;;;;;;;4.83;3.40;;;;;;;3.78;74.03;95815.22;5063339;28;20186;-70
2022/01/08 05:11:32;;;;;;;3.47;3.10;;;;;;;3.39;75.11;95821.38;5059104;28;20716;-68
2022/01/08 05:13:58;;;;;;;4.83;3.30;;;;;;;3.46;74.67;95821.66;5057069;28;20224;-69
2022/01/08 05:16:25;;;;;;;2.80;2.60;;;;;;;3.54;75.25;95830.31;5060392;28;20182;-70
2022/01/08 05:18:54;;;;;;;3.10;2.67;;;;;;;3.76;73.97;95832.69;5059647;28;20197;-69
2022/01/08 05:21:29;;;;;;;5.20;2.63;;;;;;;3.46;75.52;95838.00;5053148;28;20422;-70
2022/01/08 05:23:56;;;;;;;2.40;2.20;;;;;;;3.39;75.96;95839.53;5059066;28;20432;-70
2022/01/08 05:26:24;;;;;;;3.40;2.40;;;;;;;3.64;75.34;95845.03;5054930;28;20460;-70
2022/01/08 05:28:49;;;;;;;3.90;2.27;;;;;;;3.64;75.69;95856.19;5063759;28;20425;-70
2022/01/08 05:31:17;;;;;;;2.47;2.27;;;;;;;3.58;75.59;95859.38;5055876;28;20487;-71
2022/01/08 05:33:43;;;;;;;2.27;2.07;;;;;;;3.20;77.14;95874.84;5049083;28;20175;-70
2022/01/08 05:36:09;;;;;;;3.43;2.13;;;;;;;3.26;77.42;95883.03;5057259;28;20426;-68
2022/01/08 05:38:34;;;;;;;2.07;1.87;;;;;;;3.49;76.09;95881.75;5054462;28;20460;-70
2022/01/08 05:41:00;;;;;;;1.90;1.80;;;;;;;3.25;76.73;95891.75;5057391;28;20187;-69
2022/01/08 05:43:26;;;;;;;2.20;2.00;;;;;;;3.45;75.88;95902.91;5059836;28;20199;-69
2022/01/08 05:45:52;;;;;;;4.33;2.20;;;;;;;3.22;76.47;95909.19;5059198;28;20957;-70
2022/01/08 05:48:18;;;;;;;4.40;2.20;;;;;;;3.25;76.94;95917.66;5057344;28;20602;-69
2022/01/08 05:50:43;;;;;;;3.00;2.60;;;;;;;2.88;78.42;95927.75;5060139;28;20186;-68
2022/01/08 05:53:09;;;;;;;3.10;2.10;;;;;;;3.65;75.98;95929.56;5058844;28;20819;-70
2022/01/08 05:55:34;;;;;;;3.30;2.27;;;;;;;3.20;77.22;95941.38;5061212;28;20179;-69
2022/01/08 05:58:00;;;;;;;2.33;1.80;;;;;;;3.18;76.39;95938.91;5060982;28;20540;-70
2022/01/08 06:00:26;;;;;;;1.70;1.60;;;;;;;3.27;77.07;95947.63;5052043;28;20241;-70
2022/01/08 06:02:52;;;;;;;1.40;1.30;;;;;;;2.94;76.87;95972.97;5063301;28;20823;-70
2022/01/08 06:05:17;;;;;;;2.80;1.13;;;;;;;3.16;76.31;95982.22;5054676;28;20422;-70
2022/01/08 06:07:43;;;;;;;1.20;1.10;;;;;;;2.74;77.37;95992.81;5059407;28;20596;-70
2022/01/08 06:10:09;;;;;;;1.00;0.90;;;;;;;2.51;77.35;96008.56;5056786;28;20262;-69
2022/01/08 06:12:34;;;;;;;1.00;0.80;;;;;;;2.81;76.16;96024.97;5059239;28;20642;-70
2022/01/08 06:15:00;;;;;;;1.10;1.00;;;;;;;2.37;76.57;96027.00;5057243;28;20190;-70
2022/01/08 06:17:26;;;;;;;1.13;1.03;;;;;;;2.48;75.98;96016.56;5062276;28;20214;-69
2022/01/08 06:19:51;;;;;;;1.03;0.93;;;;;;;2.52;75.75;96030.06;5065229;28;20182;-69
2022/01/08 06:22:17;;;;;;;1.50;1.00;;;;;;;2.44;75.78;96022.94;5055211;28;20574;-70
2022/01/08 06:24:42;;;;;;;1.10;1.00;;;;;;;2.32;76.21;96052.44;5063225;28;20186;-70
2022/01/08 06:27:08;;;;;;;1.70;1.20;;;;;;;2.37;76.86;96063.22;5057169;28;20285;-70
2022/01/08 06:29:34;;;;;;;1.40;1.30;;;;;;;2.65;76.50;96066.06;5059054;28;20942;-70
2022/01/08 06:31:59;;;;;;;1.47;1.37;;;;;;;2.55;76.08;96068.59;5054690;28;20199;-69
2022/01/08 06:34:25;;;;;;;3.90;0.90;;;;;;;2.45;76.53;96086.66;5064317;28;20786;-69
2022/01/08 06:36:51;;;;;;;1.60;1.30;;;;;;;2.49;76.85;96100.16;5055838;28;20638;-70
2022/01/08 06:39:17;;;;;;;1.23;1.13;;;;;;;2.34;76.89;96110.81;5051326;28;20190;-69
2022/01/08 06:41:42;;;;;;;1.73;1.20;;;;;;;2.33;76.46;96113.53;5058882;28;20263;-70
2022/01/08 06:44:08;;;;;;;1.50;1.40;;;;;;;2.33;75.80;96129.06;5051559;28;20441;-69
2022/01/08 06:46:34;;;;;;;1.40;1.30;;;;;;;2.57;75.58;96136.56;5056772;28;20777;-68
2022/01/08 06:48:59;;;;;;;1.70;1.60;;;;;;;2.48;75.26;96132.97;5059707;28;20198;-68
2022/01/08 06:51:25;;;;;;;1.47;1.37;;;;;;;2.30;76.06;96151.63;5056483;28;20234;-70
2022/01/08 06:53:51;;;;;;;2.17;1.50;;;;;;;2.48;75.57;96158.00;5056149;28;20190;-68
2022/01/08 06:56:18;;;;;;;3.37;1.70;;;;;;;2.36;75.85;96165.81;5061612;28;20645;-70
2022/01/08 06:58:43;;;;;;;2.50;1.63;;;;;;;2.35;75.67;96166.78;5055799;28;20175;-69
2022/01/08 07:01:09;;;;;;;1.83;1.57;;;;;;;2.56;75.74;96187.47;5053949;28;20447;-69
2022/01/08 07:03:35;;;;;;;2.30;1.80;;;;;;;2.37;75.47;96197.69;5064060;28;20594;-69
2022/01/08 07:06:00;;;;;;;1.60;1.50;;;;;;;2.53;75.27;96194.66;5057372;28;20186;-69
2022/01/08 07:08:26;;;;;;;1.97;1.60;;;;;;;2.55;74.11;96170.28;5051437;28;20182;-68
2022/01/08 07:10:51;;;;;;;1.67;1.57;;;;;;;2.22;75.33;96210.91;5062298;28;20327;-69
2022/01/08 07:13:17;;;;;;;1.97;1.60;;;;;;;2.44;74.62;96211.75;5052454;28;20261;-69
2022/01/08 07:15:43;;;;;;;1.60;1.50;;;;;;;2.65;74.27;96234.22;5061594;28;20190;-68
2022/01/08 07:18:08;;;;;;;1.70;1.60;;;;;;;2.37;75.02;96244.25;5054668;28;20198;-69
2022/01/08 07:20:34;;;;;;;1.97;1.77;;;;;;;2.54;75.77;96241.09;5056824;28;20270;-69
2022/01/08 07:22:59;;;;;;;3.10;1.80;;;;;;;2.41;75.68;96251.63;5050650;28;20222;-70
2022/01/08 07:25:25;;;;;;;3.93;2.17;;;;;;;2.48;75.74;96251.94;5060063;28;20504;-70
2022/01/08 07:27:51;;;;;;;2.43;2.03;;;;;;;2.64;75.01;96263.63;5050417;28;20186;-69
2022/01/08 07:30:16;;;;;;;2.80;2.33;;;;;;;2.22;75.94;96275.56;5059195;28;20189;-69
2022/01/08 07:32:47;;;;;;;3.70;2.50;;;;;;;2.58;75.65;96283.06;5050445;28;20206;-70
2022/01/08 07:35:14;;;;;;;4.47;2.70;;;;;;;2.60;75.18;96286.31;5054178;28;20228;-69
2022/01/08 07:37:41;;;;;;;4.13;2.70;;;;;;;2.53;75.23;96292.94;5051081;28;20418;-69
2022/01/08 07:40:07;;;;;;;2.37;2.20;;;;;;;2.25;75.47;96303.75;5055934;28;20795;-70
2022/01/08 07:42:32;;;;;;;3.50;2.20;;;;;;;2.81;74.72;96309.63;5059374;28;20542;-69
2022/01/08 07:44:58;;;;;;;4.93;3.17;;;;;;;2.82;74.13;96316.44;5059908;28;20425;-68
2022/01/08 07:47:23;;;;;;;2.10;1.90;;;;;;;2.69;74.62;96320.97;5052388;28;20194;-70
2022/01/08 07:49:49;;;;;;;4.00;2.80;;;;;;;2.84;74.45;96330.09;5061180;28;20178;-70
2022/01/08 07:52:15;;;;;;;3.10;2.80;;;;;;;3.03;74.13;96325.97;5059629;28;20708;-69
2022/01/08 07:54:40;;;;;;;3.70;3.03;;;;;;;2.88;73.97;96341.84;5069799;28;20210;-68
2022/01/08 07:57:06;;;;;;;3.63;3.30;;;;;;;2.91;73.83;96341.56;5055060;28;20191;-70
2022/01/08 07:59:32;;;;;;;5.87;3.30;;;;;;;3.03;73.70;96341.50;5056881;28;20266;-70
2022/01/08 08:01:57;;;;;;;4.37;3.20;;;;;;;2.93;73.51;96354.41;5054546;28;20206;-69
2022/01/08 08:04:23;;;;;;;3.57;3.27;;;;;;;2.56;74.11;96353.03;5059754;28;20293;-69
2022/01/08 08:06:48;;;;;;;5.50;3.30;;;;;;;2.94;73.50;96361.22;5057942;28;20217;-70
2022/01/08 08:09:15;;;;;;;3.80;3.23;;;;;;;2.97;72.82;96370.50;5061943;28;20209;-71
2022/01/08 08:11:41;;;;;;;5.60;3.00;;;;;;;2.96;71.85;96379.22;5058972;28;20202;-70
2022/01/08 08:14:07;;;;;;;4.30;2.87;;;;;;;2.80;72.08;96383.03;5058571;28;20570;-70
2022/01/08 08:16:32;;;;;;;2.90;2.70;;;;;;;3.01;71.25;96383.06;5052720;28;20901;-69
2022/01/08 08:18:58;;;;;;;5.50;3.03;;;;;;;3.29;71.09;96379.97;5057382;28;20183;-69
2022/01/08 08:21:24;;;;;;;4.37;2.70;;;;;;;2.86;71.32;96395.50;5054574;28;20175;-69
2022/01/08 08:23:49;;;;;;;3.90;2.70;;;;;;;3.00;70.17;96396.16;5059598;28;20252;-69
2022/01/08 08:26:15;;;;;;;3.07;2.63;;;;;;;2.78;70.52;96404.81;5055539;28;20222;-69
2022/01/08 08:28:40;;;;;;;3.63;2.87;;;;;;;3.20;69.74;96400.50;5064606;28;20185;-69
2022/01/08 08:31:07;;;;;;;2.13;1.93;;;;;;;3.05;69.27;96407.78;5058215;28;20191;-69
2022/01/08 08:33:33;;;;;;;3.67;2.87;;;;;;;3.16;69.50;96413.84;5062798;28;20214;-69
2022/01/08 08:35:58;;;;;;;4.47;2.60;;;;;;;3.12;69.34;96412.44;5058067;28;20532;-69
2022/01/08 08:38:24;;;;;;;3.87;2.50;;;;;;;3.51;68.03;96415.28;5063741;28;20179;-69
2022/01/08 08:40:51;;;;;;;7.30;2.57;;;;;;;3.16;68.63;96421.59;5060728;28;20226;-69
2022/01/08 08:43:17;;;;;;;4.67;2.47;;;;;;;3.43;68.06;96428.88;5061291;28;20569;-69
2022/01/08 08:45:43;;;;;;;3.00;2.43;;;;;;;3.42;68.49;96427.22;5064401;28;20421;-69
2022/01/08 08:48:08;;;;;;;3.47;2.33;;;;;;;3.20;68.58;96428.19;5053730;28;20443;-71
2022/01/08 08:50:34;;;;;;;5.30;2.40;;;;;;;3.42;68.06;96437.59;5065122;28;20175;-70
2022/01/08 08:52:59;;;;;;;5.20;2.43;;;;;;;3.64;67.45;96441.00;5061443;28;20328;-70
2022/01/08 08:55:25;;;;;;;7.87;2.83;;;;;;;3.27;69.16;96459.59;5066897;28;20179;-69
2022/01/08 08:57:51;;;;;;;4.73;2.43;;;;;;;3.28;68.88;96445.66;5064611;28;20213;-69
2022/01/08 09:00:16;;;;;;;4.90;2.43;;;;;;;3.12;69.54;96454.69;5070454;28;20214;-69
2022/01/08 09:02:42;;;;;;;3.67;2.77;;;;;;;3.45;68.79;96460.66;5068425;28;20221;-69
2022/01/08 09:05:08;;;;;;;3.90;2.30;;;;;;;3.38;69.12;96462.13;5073771;28;20194;-68
2022/01/08 09:07:34;;;;;;;2.60;2.40;;;;;;;3.36;68.09;96466.59;5072085;28;20178;-68
2022/01/08 09:10:02;;;;;;;6.20;2.37;;;;;;;3.20;69.06;96470.44;5072548;28;20431;-71
2022/01/08 09:12:27;;;;;;;3.83;2.50;;;;;;;3.30;69.11;96475.69;5073065;28;20429;-70
2022/01/08 09:14:53;;;;;;;6.20;2.50;;;;;;;3.42;68.86;96471.25;5065720;28;20474;-73
2022/01/08 09:17:20;;;;;;;9.33;2.57;;;;;;;3.15;68.68;96480.31;5066801;28;20560;-70
2022/01/08 09:19:46;;;;;;;12.33;3.60;;;;;;;3.66;67.32;96489.16;5066178;28;20233;-71
2022/01/08 09:22:12;;;;;;;4.00;2.60;;;;;;;3.54;67.93;96483.22;5060756;28;20537;-71
2022/01/08 09:24:39;;;;;;;6.10;2.37;;;;;;;3.58;67.08;96483.81;5043191;28;20178;-71
2022/01/08 09:27:04;;;;;;;3.50;2.40;;;;;;;3.44;67.48;96487.50;5059682;28;20460;-71
2022/01/08 09:29:30;;;;;;;7.93;4.40;;;;;;;3.56;67.34;96498.66;5059146;28;20421;-71
2022/01/08 09:31:56;;;;;;;5.37;2.50;;;;;;;3.96;66.02;96494.53;5064482;28;20284;-72
2022/01/08 09:34:21;;;;;;;5.73;3.60;;;;;;;3.57;66.90;96496.88;5061212;28;20197;-71
2022/01/08 09:36:48;;;;;;;7.33;3.47;;;;;;;4.29;65.32;96497.81;5068355;28;20183;-71
2022/01/08 09:39:15;;;;;;;5.97;3.20;;;;;;;3.99;66.73;96496.88;5062441;28;20190;-71
2022/01/08 09:41:40;;;;;;;5.33;3.97;;;;;;;4.06;66.03;96497.97;5072684;28;20440;-70
2022/01/08 09:44:06;;;;;;;11.53;3.20;;;;;;;4.30;64.43;96502.03;5072633;28;21107;-72
2022/01/08 09:46:32;;;;;;;6.90;3.57;;;;;;;4.02;65.28;96507.00;5070741;28;20661;-71
2022/01/08 09:48:57;;;;;;;6.50;3.80;;;;;;;4.17;64.79;96496.25;5071504;28;20194;-70
2022/01/08 09:51:24;;;;;;;5.30;3.83;;;;;;;4.02;64.46;96504.41;5068820;28;20684;-72
2022/01/08 09:53:49;;;;;;;10.53;8.60;;;;;;;4.05;64.22;96501.53;5067756;28;20174;-71
2022/01/08 09:56:15;;;;;;;8.73;3.13;;;;;;;3.95;64.60;96505.84;5071639;28;20790;-71
2022/01/08 09:58:41;;;;;;;4.90;4.20;;;;;;;4.19;63.04;96507.31;5072347;28;20194;-71
2022/01/08 10:01:24;;;;;;;6.57;3.90;;;;;;;4.21;62.76;96505.44;5072433;28;20190;-72
2022/01/08 10:03:49;;;;;;;7.23;4.37;;;;;;;4.27;62.81;96504.94;5072296;28;20203;-70
2022/01/08 10:06:21;;;;;;;6.27;2.97;;;;;;;4.05;62.42;96518.88;5072332;28;20432;-71
2022/01/08 10:08:47;;;;;;;6.03;3.00;;;;;;;4.09;63.00;96518.47;5071094;28;20324;-71
2022/01/08 10:11:13;;;;;;;6.33;2.93;;;;;;;3.98;63.12;96510.78;5070118;28;20486;-72
2022/01/08 10:13:41;;;;;;;4.23;2.93;;;;;;;4.09;62.54;96508.09;5058596;28;20453;-70
2022/01/08 10:19:01;;;;;;;5.33;2.93;;;;;;;3.94;62.49;96511.97;4993780;28;20441;-70
2022/01/08 10:21:29;;;;;;;3.83;2.53;;;;;;;3.87;61.84;96508.25;5052564;28;21065;-71
2022/01/08 10:24:00;;;;;;;6.30;3.13;;;;;;;3.72;61.67;96505.19;5067485;28;20464;-71
2022/01/08 10:26:31;;;;;;;6.00;2.73;;;;;;;4.15;60.76;96507.59;5072482;28;20425;-72
2022/01/08 10:29:10;;;;;;;5.37;2.90;;;;;;;4.10;62.28;96506.31;5071498;28;20423;-72
2022/01/08 10:31:43;;;;;;;7.40;2.83;;;;;;;3.69;61.99;96512.25;5063675;28;20440;-71
2022/01/08 10:34:18;;;;;;;4.20;2.57;;;;;;;3.20;63.03;96501.50;5049461;28;20437;-72
2022/01/08 10:36:46;;;;;;;3.07;2.50;;;;;;;4.09;61.50;96512.50;5052333;28;20989;-71
2022/01/08 10:39:17;;;;;;;5.20;2.60;;;;;;;4.00;61.57;96504.50;5055441;28;20434;-73
2022/01/08 10:41:48;;;;;;;4.73;2.83;;;;;;;3.72;61.81;96516.34;5072572;28;20448;-72
2022/01/08 10:44:19;;;;;;;7.67;2.60;;;;;;;3.81;59.98;96504.41;5073591;28;20425;-71
2022/01/08 10:46:55;;;;;;;7.23;3.00;;;;;;;3.50;60.94;96507.75;5056830;28;20469;-72
2022/01/08 10:49:36;;;;;;;4.93;3.30;;;;;;;3.97;60.67;96498.75;5049828;28;20429;-71
2022/01/08 10:52:05;;;;;;;5.90;3.13;;;;;;;3.50;61.24;96496.56;5051211;28;20442;-70
2022/01/08 10:54:35;;;;;;;7.30;2.70;;;;;;;3.78;59.99;96497.69;5065450;28;20437;-71
2022/01/08 10:57:03;;;;;;;10.43;3.93;;;;;;;3.82;59.80;96496.50;5049095;28;20444;-70
2022/01/08 10:59:30;;;;;;;8.83;3.60;;;;;;;4.05;59.99;96495.53;5049099;28;20518;-73
2022/01/08 11:02:02;;;;;;;3.17;2.53;;;;;;;4.50;58.41;96502.13;5049397;28;20817;-72
2022/01/08 11:04:34;;;;;;;8.20;2.87;;;;;;;4.35;59.39;96497.31;5062163;28;20416;-72
2022/01/08 11:07:04;;;;;;;2.50;2.23;;;;;;;4.35;58.42;96497.31;5065892;28;20420;-71
2022/01/08 11:09:30;;;;;;;3.13;2.10;;;;;;;3.99;58.21;96492.50;5067485;28;20504;-73
2022/01/08 11:11:58;;;;;;;5.37;2.30;;;;;;;4.47;58.10;96487.66;5069150;28;20469;-71
2022/01/08 11:17:24;;;;;;;8.03;3.93;;;;;;;4.52;59.47;96476.88;5069696;28;20520;-71
2022/01/08 11:19:55;;;;;;;9.23;2.73;;;;;;;4.47;59.47;96474.69;5070384;28;20435;-71
2022/01/08 11:22:23;;;;;;;11.43;3.07;;;;;;;4.85;57.68;96467.09;5062275;28;20461;-71
2022/01/08 11:24:54;;;;;;;6.67;3.20;;;;;;;4.74;57.79;96465.44;5066782;28;20836;-73
2022/01/08 11:27:23;;;;;;;2.83;2.10;;;;;;;3.82;60.46;96470.56;5061600;28;20425;-71
2022/01/08 11:29:57;;;;;;;4.63;2.83;;;;;;;4.44;59.01;96470.56;5064398;28;20428;-74
2022/01/08 11:32:24;;;;;;;4.83;2.47;;;;;;;5.10;57.79;96463.19;5065500;28;20983;-72
2022/01/08 11:34:50;;;;;;;2.77;2.23;;;;;;;5.27;56.63;96459.09;5068192;28;20416;-71
2022/01/08 11:37:16;;;;;;;6.83;2.37;;;;;;;5.58;55.73;96468.50;5070640;28;20473;-72
2022/01/08 11:39:43;;;;;;;9.03;4.00;;;;;;;4.96;56.34;96453.19;5052501;28;20190;-73
2022/01/08 11:42:11;;;;;;;6.30;3.90;;;;;;;5.42;56.69;96458.66;5070994;28;20210;-73
2022/01/08 11:44:38;;;;;;;9.70;2.57;;;;;;;5.13;56.97;96444.72;5052919;28;20421;-71
2022/01/08 11:47:03;;;;;;;5.97;2.30;;;;;;;4.97;57.48;96447.03;5069323;28;20531;-72
2022/01/08 11:49:29;;;;;;;8.73;4.90;;;;;;;5.44;56.62;96446.34;5069013;28;20451;-72
2022/01/08 11:52:18;;;;;;;3.20;1.97;;;;;;;5.53;56.14;96440.31;5060682;28;20353;-70
2022/01/08 11:54:45;;;;;;;4.60;1.97;;;;;;;4.23;59.72;96436.09;5071296;28;20228;-74
2022/01/08 11:57:17;;;;;;;8.90;3.07;;;;;;;5.11;57.22;96423.25;5050649;28;20425;-73
2022/01/08 11:59:43;;;;;;;4.50;3.20;;;;;;;4.60;58.21;96420.75;5064660;28;20902;-72
2022/01/08 12:02:11;;;;;;;7.50;2.97;;;;;;;4.83;59.51;96415.31;5070859;28;20463;-73
2022/01/08 12:04:37;;;;;;;5.03;2.73;;;;;;;4.59;59.23;96411.34;5071000;28;20816;-73
2022/01/08 12:07:24;;;;;;;7.40;3.57;;;;;;;4.78;59.40;96424.47;5070936;28;20486;-72